Terminal Aerodrome Forecast
Issued by NWS Tampa Bay Area, FL

Home | Current Version | Previous Version | Text Only | Print | Product List | Glossary On
Versions: 1 2 3 4 5 6 7 8 9 10 11 12 13 14 15 16 17 18 19 20 21 22 23 24 25 26 27 28 29 30
000
FTUS42 KTBW 260856 AAB
TAFTPA
TAF AMD
KTPA 260856Z 2609/2706 22013G20KT P6SM SCT015 SCT250
      TEMPO 2609/2612 BKN015
     FM261200 22010KT P6SM SCT015 SCT250
     FM261400 23013G20KT P6SM VCSH SCT020 SCT250
     FM261800 25014G24KT P6SM VCSH SCT035 SCT250
     FM262300 24012KT P6SM SCT040 BKN250=

USA.gov is the U.S. government's official web portal to all federal, state and local government web resources and services.